Dades meteomassalio
Diari Summary for Octubre 12, 2018 Units:  Both    English   Metric
« Previous Day
Next Day »
Diari Semanal Mensual Anual Personalitzat
  Maxima: Minima: Mijana:
Temperatura: TemperatureC °F /  -17.8 °C 10.0 °F /  -12.2 °C 18 °F /  -7.8 °C
Rosada: DewpointC °F /  -17.8 °C 7.9 °F /  -13.4 °C 12 °F /  -11.1 °C
Humitat: Humidity % 45 % 70 %
Velocitat del vent: WindSpeedKMH mph /  0 km/h - 4.3 mph /  6.9 km/h
Racha vent: WindSpeedGustKMH mph /  0 km/h - -
Vent:- - SE
Pressio: PressurehPa in /  0 hPa 1019.1 in /  34506.7 hPa -
Pluja: 0.0 in /  0 mm    
Historical Graphs
 
 
Tabular Data for Octubre 12, 2018
Time Temperature Dew Point Pressure Wind Wind Speed Wind Gust Humidity Rainfall Rate (Hourly) solar Conditions
TemperatureC °F /  -17.8 °C DewpointC °F /  -17.8 °C PressurehPa in /  0 hPa Calm     Humidity % HourlyPrecipMM in /  0 mm SolarRadiationWatts/m^2 W/m2 Conditions
00:04 14.4 °F /  -9.8 °C 10.7 °F /  -11.8 °C 1019.1 in /  34506.7 hPa Calm     78 % 0.0 in /  0 mm 0.00 W/m2 CLR
00:09 14.4 °F /  -9.8 °C 10.8 °F /  -11.8 °C 1019.2 in /  34510.1 hPa Calm     79 % 0.0 in /  0 mm 0.00 W/m2 CLR
00:14 14.4 °F /  -9.8 °C 10.7 °F /  -11.8 °C 1019.2 in /  34510.1 hPa Calm     78 % 0.0 in /  0 mm 0.00 W/m2 CLR
00:19 14.4 °F /  -9.8 °C 10.8 °F /  -11.8 °C 1019.3 in /  34513.5 hPa Calm     79 % 0.0 in /  0 mm 0.00 W/m2 CLR
00:24 13.9 °F /  -10.1 °C 10.3 °F /  -12.1 °C 1019.3 in /  34513.5 hPa Calm     79 % 0.0 in /  0 mm 0.00 W/m2 CLR
00:29 13.9 °F /  -10.1 °C 10.3 °F /  -12.1 °C 1019.3 in /  34513.5 hPa Calm     79 % 0.0 in /  0 mm 0.00 W/m2 CLR
00:34 13.9 °F /  -10.1 °C 10.3 °F /  -12.1 °C 1019.3 in /  34513.5 hPa Calm     79 % 0.0 in /  0 mm 0.00 W/m2 CLR
00:39 13.9 °F /  -10.1 °C 10.5 °F /  -11.9 °C 1019.4 in /  34516.9 hPa Calm     80 % 0.0 in /  0 mm 0.00 W/m2 CLR
00:44 13.9 °F /  -10.1 °C 10.5 °F /  -11.9 °C 1019.4 in /  34516.9 hPa Calm     80 % 0.0 in /  0 mm 0.00 W/m2 CLR
00:49 13.9 °F /  -10.1 °C 10.7 °F /  -11.8 °C 1019.4 in /  34516.9 hPa Calm     81 % 0.0 in /  0 mm 0.00 W/m2 CLR
00:54 13.9 °F /  -10.1 °C 10.5 °F /  -11.9 °C 1019.5 in /  34520.3 hPa Calm     80 % 0.0 in /  0 mm 0.00 W/m2 CLR
00:59 13.9 °F /  -10.1 °C 10.5 °F /  -11.9 °C 1019.6 in /  34523.7 hPa Calm     80 % 0.0 in /  0 mm 0.00 W/m2 CLR
01:04 13.9 °F /  -10.1 °C 10.5 °F /  -11.9 °C 1019.5 in /  34520.3 hPa Calm     80 % 0.0 in /  0 mm 0.00 W/m2 CLR
01:09 13.9 °F /  -10.1 °C 10.5 °F /  -11.9 °C 1019.5 in /  34520.3 hPa Calm     80 % 0.0 in /  0 mm 0.00 W/m2 CLR
01:14 13.9 °F /  -10.1 °C 10.9 °F /  -11.7 °C 1019.5 in /  34520.3 hPa Calm     82 % 0.0 in /  0 mm 0.00 W/m2 CLR
01:19 13.3 °F /  -10.4 °C 10.2 °F /  -12.1 °C 1019.6 in /  34523.7 hPa Calm     81 % 0.0 in /  0 mm 0.00 W/m2 CLR
01:24 13.3 °F /  -10.4 °C 10.2 °F /  -12.1 °C 1019.6 in /  34523.7 hPa Calm     81 % 0.0 in /  0 mm 0.00 W/m2 CLR
01:29 13.3 °F /  -10.4 °C 10.2 °F /  -12.1 °C 1019.7 in /  34527 hPa Calm     81 % 0.0 in /  0 mm 0.00 W/m2 CLR
01:34 13.3 °F /  -10.4 °C 10.2 °F /  -12.1 °C 1019.7 in /  34527 hPa Calm     81 % 0.0 in /  0 mm 0.00 W/m2 CLR
01:39 13.3 °F /  -10.4 °C 10.2 °F /  -12.1 °C 1019.8 in /  34530.4 hPa Calm     81 % 0.0 in /  0 mm 0.00 W/m2 CLR
01:44 13.3 °F /  -10.4 °C 10.2 °F /  -12.1 °C 1019.9 in /  34533.8 hPa Calm     81 % 0.0 in /  0 mm 0.00 W/m2 CLR
01:49 13.9 °F /  -10.1 °C 10.7 °F /  -11.8 °C 1019.9 in /  34533.8 hPa Calm     81 % 0.0 in /  0 mm 0.00 W/m2 CLR
01:54 13.9 °F /  -10.1 °C 10.9 °F /  -11.7 °C 1020.0 in /  34537.2 hPa Calm     82 % 0.0 in /  0 mm 0.00 W/m2 CLR
01:59 13.9 °F /  -10.1 °C 11.1 °F /  -11.6 °C 1020.0 in /  34537.2 hPa Calm     83 % 0.0 in /  0 mm 0.00 W/m2 CLR
02:04 13.9 °F /  -10.1 °C 11.1 °F /  -11.6 °C 1020.0 in /  34537.2 hPa Calm     83 % 0.0 in /  0 mm 0.00 W/m2 CLR
02:09 13.9 °F /  -10.1 °C 11.1 °F /  -11.6 °C 1020.1 in /  34540.6 hPa Calm     83 % 0.0 in /  0 mm 0.00 W/m2 CLR
02:14 13.9 °F /  -10.1 °C 11.1 °F /  -11.6 °C 1020.1 in /  34540.6 hPa Calm     83 % 0.0 in /  0 mm 0.00 W/m2 CLR
02:19 13.9 °F /  -10.1 °C 11.1 °F /  -11.6 °C 1020.1 in /  34540.6 hPa Calm     83 % 0.0 in /  0 mm 0.00 W/m2 CLR
02:24 13.3 °F /  -10.4 °C 10.3 °F /  -12.1 °C 1020.2 in /  34544 hPa Calm     82 % 0.0 in /  0 mm 0.00 W/m2 CLR
02:29 13.3 °F /  -10.4 °C 10.3 °F /  -12.1 °C 1020.2 in /  34544 hPa Calm     82 % 0.0 in /  0 mm 0.00 W/m2 CLR
02:34 13.3 °F /  -10.4 °C 10.3 °F /  -12.1 °C 1020.3 in /  34547.4 hPa Calm     82 % 0.0 in /  0 mm 0.00 W/m2 CLR
02:39 13.3 °F /  -10.4 °C 10.5 °F /  -11.9 °C 1020.4 in /  34550.7 hPa Calm     83 % 0.0 in /  0 mm 0.00 W/m2 CLR
02:44 13.3 °F /  -10.4 °C 10.5 °F /  -11.9 °C 1020.4 in /  34550.7 hPa Calm     83 % 0.0 in /  0 mm 0.00 W/m2 CLR
02:49 12.8 °F /  -10.7 °C 9.8 °F /  -12.3 °C 1020.4 in /  34550.7 hPa Calm     82 % 0.0 in /  0 mm 0.00 W/m2 CLR
02:54 12.8 °F /  -10.7 °C 9.9 °F /  -12.3 °C 1020.5 in /  34554.1 hPa Calm     83 % 0.0 in /  0 mm 0.00 W/m2 CLR
02:59 12.8 °F /  -10.7 °C 9.9 °F /  -12.3 °C 1020.5 in /  34554.1 hPa Calm     83 % 0.0 in /  0 mm 0.00 W/m2 CLR
03:04 12.8 °F /  -10.7 °C 9.8 °F /  -12.3 °C 1020.6 in /  34557.5 hPa Calm     82 % 0.0 in /  0 mm 0.00 W/m2 CLR
03:09 12.8 °F /  -10.7 °C 9.8 °F /  -12.3 °C 1020.7 in /  34560.9 hPa Calm     82 % 0.0 in /  0 mm 0.00 W/m2 CLR
03:14 12.8 °F /  -10.7 °C 9.8 °F /  -12.3 °C 1020.6 in /  34557.5 hPa Calm     82 % 0.0 in /  0 mm 0.00 W/m2 CLR
03:19 12.2 °F /  -11 °C 9.4 °F /  -12.6 °C 1020.6 in /  34557.5 hPa Calm     83 % 0.0 in /  0 mm 0.00 W/m2 CLR
03:24 12.2 °F /  -11 °C 9.4 °F /  -12.6 °C 1020.7 in /  34560.9 hPa Calm     83 % 0.0 in /  0 mm 0.00 W/m2 CLR
03:29 12.2 °F /  -11 °C 9.4 °F /  -12.6 °C 1020.7 in /  34560.9 hPa Calm     83 % 0.0 in /  0 mm 0.00 W/m2 CLR
03:34 12.2 °F /  -11 °C 9.6 °F /  -12.4 °C 1020.7 in /  34560.9 hPa Calm     84 % 0.0 in /  0 mm 0.00 W/m2 CLR
03:39 12.2 °F /  -11 °C 9.6 °F /  -12.4 °C 1020.7 in /  34560.9 hPa Calm     84 % 0.0 in /  0 mm 0.00 W/m2 CLR
03:44 11.7 °F /  -11.3 °C 9.1 °F /  -12.7 °C 1020.6 in /  34557.5 hPa Calm     84 % 0.0 in /  0 mm 0.00 W/m2 CLR
03:49 11.7 °F /  -11.3 °C 9.1 °F /  -12.7 °C 1020.7 in /  34560.9 hPa Calm     84 % 0.0 in /  0 mm 0.00 W/m2 CLR
03:54 11.7 °F /  -11.3 °C 8.9 °F /  -12.8 °C 1020.7 in /  34560.9 hPa Calm     83 % 0.0 in /  0 mm 0.00 W/m2 CLR
03:59 11.7 °F /  -11.3 °C 9.1 °F /  -12.7 °C 1020.7 in /  34560.9 hPa Calm     84 % 0.0 in /  0 mm 0.00 W/m2 CLR
04:04 11.7 °F /  -11.3 °C 8.9 °F /  -12.8 °C 1020.6 in /  34557.5 hPa Calm     83 % 0.0 in /  0 mm 0.00 W/m2 CLR
04:09 11.7 °F /  -11.3 °C 8.9 °F /  -12.8 °C 1020.7 in /  34560.9 hPa Calm     83 % 0.0 in /  0 mm 0.00 W/m2 CLR
04:14 11.7 °F /  -11.3 °C 8.9 °F /  -12.8 °C 1020.6 in /  34557.5 hPa Calm     83 % 0.0 in /  0 mm 0.00 W/m2 CLR
04:19 11.7 °F /  -11.3 °C 8.9 °F /  -12.8 °C 1020.7 in /  34560.9 hPa Calm     83 % 0.0 in /  0 mm 0.00 W/m2 CLR
04:24 11.7 °F /  -11.3 °C 9.1 °F /  -12.7 °C 1020.6 in /  34557.5 hPa Calm     84 % 0.0 in /  0 mm 0.00 W/m2 CLR
04:29 11.7 °F /  -11.3 °C 9.1 °F /  -12.7 °C 1020.6 in /  34557.5 hPa Calm     84 % 0.0 in /  0 mm 0.00 W/m2 CLR
04:34 11.1 °F /  -11.6 °C 8.5 °F /  -13.1 °C 1020.5 in /  34554.1 hPa Calm     84 % 0.0 in /  0 mm 0.00 W/m2 CLR
04:39 11.1 °F /  -11.6 °C 8.7 °F /  -12.9 °C 1020.5 in /  34554.1 hPa Calm     85 % 0.0 in /  0 mm 0.00 W/m2 CLR
04:44 11.1 °F /  -11.6 °C 8.7 °F /  -12.9 °C 1020.5 in /  34554.1 hPa Calm     85 % 0.0 in /  0 mm 0.00 W/m2 CLR
04:49 11.1 °F /  -11.6 °C 8.7 °F /  -12.9 °C 1020.6 in /  34557.5 hPa Calm     85 % 0.0 in /  0 mm 0.00 W/m2 CLR
04:54 11.1 °F /  -11.6 °C 8.7 °F /  -12.9 °C 1020.5 in /  34554.1 hPa Calm     85 % 0.0 in /  0 mm 0.00 W/m2 CLR
04:59 11.1 °F /  -11.6 °C 8.8 °F /  -12.9 °C 1020.5 in /  34554.1 hPa Calm     86 % 0.0 in /  0 mm 0.00 W/m2 CLR
05:04 11.1 °F /  -11.6 °C 8.8 °F /  -12.9 °C 1020.5 in /  34554.1 hPa Calm     86 % 0.0 in /  0 mm 0.00 W/m2 CLR
05:09 11.1 °F /  -11.6 °C 8.8 °F /  -12.9 °C 1020.5 in /  34554.1 hPa Calm     86 % 0.0 in /  0 mm 0.00 W/m2 CLR
05:14 11.1 °F /  -11.6 °C 8.8 °F /  -12.9 °C 1020.5 in /  34554.1 hPa Calm     86 % 0.0 in /  0 mm 0.00 W/m2 CLR
05:19 11.1 °F /  -11.6 °C 8.8 °F /  -12.9 °C 1020.5 in /  34554.1 hPa Calm     86 % 0.0 in /  0 mm 0.00 W/m2 CLR
05:24 11.1 °F /  -11.6 °C 8.8 °F /  -12.9 °C 1020.6 in /  34557.5 hPa Calm     86 % 0.0 in /  0 mm 0.00 W/m2 CLR
05:29 11.1 °F /  -11.6 °C 8.7 °F /  -12.9 °C 1020.6 in /  34557.5 hPa Calm     85 % 0.0 in /  0 mm 0.00 W/m2 CLR
05:34 11.1 °F /  -11.6 °C 8.7 °F /  -12.9 °C 1020.7 in /  34560.9 hPa Calm     85 % 0.0 in /  0 mm 0.00 W/m2 CLR
05:39 11.1 °F /  -11.6 °C 8.8 °F /  -12.9 °C 1020.6 in /  34557.5 hPa Calm     86 % 0.0 in /  0 mm 0.00 W/m2 CLR
05:44 11.1 °F /  -11.6 °C 8.8 °F /  -12.9 °C 1020.5 in /  34554.1 hPa Calm     86 % 0.0 in /  0 mm 0.00 W/m2 CLR
05:49 11.1 °F /  -11.6 °C 8.8 °F /  -12.9 °C 1020.5 in /  34554.1 hPa Calm     86 % 0.0 in /  0 mm 0.00 W/m2 CLR
05:54 11.1 °F /  -11.6 °C 9.1 °F /  -12.7 °C 1020.5 in /  34554.1 hPa Calm     87 % 0.0 in /  0 mm 0.00 W/m2 CLR
05:59 11.1 °F /  -11.6 °C 9.1 °F /  -12.7 °C 1020.6 in /  34557.5 hPa Calm     87 % 0.0 in /  0 mm 0.00 W/m2 CLR
06:04 11.1 °F /  -11.6 °C 8.8 °F /  -12.9 °C 1020.7 in /  34560.9 hPa Calm     86 % 0.0 in /  0 mm 0.00 W/m2 CLR
06:09 11.1 °F /  -11.6 °C 9.1 °F /  -12.7 °C 1020.7 in /  34560.9 hPa Calm     87 % 0.0 in /  0 mm 0.00 W/m2 CLR
06:14 11.1 °F /  -11.6 °C 8.8 °F /  -12.9 °C 1020.8 in /  34564.3 hPa Calm     86 % 0.0 in /  0 mm 0.00 W/m2 CLR
06:19 11.1 °F /  -11.6 °C 8.8 °F /  -12.9 °C 1020.8 in /  34564.3 hPa Calm     86 % 0.0 in /  0 mm 0.00 W/m2 CLR
06:24 11.1 °F /  -11.6 °C 9.1 °F /  -12.7 °C 1021.0 in /  34571.1 hPa Calm     87 % 0.0 in /  0 mm 0.00 W/m2 CLR
06:29 11.1 °F /  -11.6 °C 9.1 °F /  -12.7 °C 1021.0 in /  34571.1 hPa Calm     87 % 0.0 in /  0 mm 0.00 W/m2 CLR
06:34 11.1 °F /  -11.6 °C 9.1 °F /  -12.7 °C 1021.1 in /  34574.4 hPa Calm     87 % 0.0 in /  0 mm 0.00 W/m2 CLR
06:39 11.1 °F /  -11.6 °C 9.2 °F /  -12.7 °C 1021.2 in /  34577.8 hPa Calm     88 % 0.0 in /  0 mm 0.00 W/m2 CLR
06:44 11.1 °F /  -11.6 °C 9.1 °F /  -12.7 °C 1021.3 in /  34581.2 hPa Calm     87 % 0.0 in /  0 mm 0.00 W/m2 CLR
06:49 11.1 °F /  -11.6 °C 9.1 °F /  -12.7 °C 1021.4 in /  34584.6 hPa Calm     87 % 0.0 in /  0 mm 0.00 W/m2 CLR
06:54 10.6 °F /  -11.9 °C 8.3 °F /  -13.2 °C 1021.4 in /  34584.6 hPa Calm     86 % 0.0 in /  0 mm 0.00 W/m2 CLR
06:59 10.6 °F /  -11.9 °C 8.3 °F /  -13.2 °C 1021.5 in /  34588 hPa Calm     86 % 0.0 in /  0 mm 0.00 W/m2 CLR
07:04 10.6 °F /  -11.9 °C 8.5 °F /  -13.1 °C 1021.6 in /  34591.4 hPa Calm     87 % 0.0 in /  0 mm 0.00 W/m2 CLR
07:09 10.6 °F /  -11.9 °C 8.7 °F /  -12.9 °C 1021.6 in /  34591.4 hPa Calm     88 % 0.0 in /  0 mm 0.00 W/m2 CLR
07:14 10.6 °F /  -11.9 °C 8.7 °F /  -12.9 °C 1021.6 in /  34591.4 hPa Calm     88 % 0.0 in /  0 mm 0.00 W/m2 CLR
07:19 10.6 °F /  -11.9 °C 8.7 °F /  -12.9 °C 1021.6 in /  34591.4 hPa Calm     88 % 0.0 in /  0 mm 0.00 W/m2 CLR
07:24 10.0 °F /  -12.2 °C 8.1 °F /  -13.3 °C 1021.7 in /  34594.8 hPa Calm     88 % 0.0 in /  0 mm 0.00 W/m2 CLR
07:29 10.0 °F /  -12.2 °C 7.9 °F /  -13.4 °C 1021.8 in /  34598.1 hPa Calm     87 % 0.0 in /  0 mm 0.00 W/m2 CLR
07:34 10.0 °F /  -12.2 °C 7.9 °F /  -13.4 °C 1021.8 in /  34598.1 hPa Calm     87 % 0.0 in /  0 mm 0.00 W/m2 CLR
07:39 10.0 °F /  -12.2 °C 8.1 °F /  -13.3 °C 1021.9 in /  34601.5 hPa Calm     88 % 0.0 in /  0 mm 0.00 W/m2 CLR
07:44 10.0 °F /  -12.2 °C 8.1 °F /  -13.3 °C 1021.9 in /  34601.5 hPa Calm     88 % 0.0 in /  0 mm 0.00 W/m2 CLR
07:49 10.0 °F /  -12.2 °C 8.1 °F /  -13.3 °C 1022.1 in /  34608.3 hPa Calm     88 % 0.0 in /  0 mm 0.00 W/m2 CLR
07:54 10.0 °F /  -12.2 °C 8.1 °F /  -13.3 °C 1022.1 in /  34608.3 hPa Calm     88 % 0.0 in /  0 mm 0.00 W/m2 CLR
07:59 10.0 °F /  -12.2 °C 8.1 °F /  -13.3 °C 1022.2 in /  34611.7 hPa Calm     88 % 0.0 in /  0 mm 5.00 W/m2 CLR
08:04 10.6 °F /  -11.9 °C 8.7 °F /  -12.9 °C 1022.3 in /  34615.1 hPa Calm     88 % 0.0 in /  0 mm 0.00 W/m2 OVC
08:09 10.0 °F /  -12.2 °C 8.1 °F /  -13.3 °C 1022.3 in /  34615.1 hPa Calm     88 % 0.0 in /  0 mm 0.00 W/m2 OVC
08:14 10.0 °F /  -12.2 °C 8.1 °F /  -13.3 °C 1022.4 in /  34618.5 hPa Calm     88 % 0.0 in /  0 mm 7.00 W/m2 BKN
08:19 10.0 °F /  -12.2 °C 8.1 °F /  -13.3 °C 1022.5 in /  34621.9 hPa Calm     88 % 0.0 in /  0 mm 14.00 W/m2 BKN
08:24 10.0 °F /  -12.2 °C 8.3 °F /  -13.2 °C 1022.5 in /  34621.9 hPa Calm     89 % 0.0 in /  0 mm 18.00 W/m2 BKN
08:29 10.0 °F /  -12.2 °C 8.1 °F /  -13.3 °C 1022.6 in /  34625.2 hPa Calm     88 % 0.0 in /  0 mm 23.00 W/m2 BKN
08:34 10.0 °F /  -12.2 °C 8.1 °F /  -13.3 °C 1022.7 in /  34628.6 hPa Calm     88 % 0.0 in /  0 mm 28.00 W/m2 BKN
08:39 10.0 °F /  -12.2 °C 8.1 °F /  -13.3 °C 1022.8 in /  34632 hPa Calm     88 % 0.0 in /  0 mm 33.00 W/m2 BKN
08:44 10.6 °F /  -11.9 °C 8.5 °F /  -13.1 °C 1022.9 in /  34635.4 hPa Calm     87 % 0.0 in /  0 mm 35.00 W/m2 BKN
08:49 10.6 °F /  -11.9 °C 8.5 °F /  -13.1 °C 1023.1 in /  34642.2 hPa Calm     87 % 0.0 in /  0 mm 42.00 W/m2 BKN
08:54 10.6 °F /  -11.9 °C 8.7 °F /  -12.9 °C 1023.1 in /  34642.2 hPa Calm     88 % 0.0 in /  0 mm 51.00 W/m2 SCT
08:59 10.6 °F /  -11.9 °C 8.7 °F /  -12.9 °C 1023.1 in /  34642.2 hPa Calm     88 % 0.0 in /  0 mm 84.00 W/m2 FEW
09:04 11.1 °F /  -11.6 °C 9.2 °F /  -12.7 °C 1023.2 in /  34645.6 hPa Calm     88 % 0.0 in /  0 mm 74.00 W/m2 FEW
09:09 11.1 °F /  -11.6 °C 9.1 °F /  -12.7 °C 1023.4 in /  34652.3 hPa Calm     87 % 0.0 in /  0 mm 111.00 W/m2 FEW
09:14 11.1 °F /  -11.6 °C 9.1 °F /  -12.7 °C 1023.4 in /  34652.3 hPa Calm     87 % 0.0 in /  0 mm 98.00 W/m2 CLR
09:19 11.7 °F /  -11.3 °C 9.6 °F /  -12.4 °C 1023.4 in /  34652.3 hPa Calm     87 % 0.0 in /  0 mm 105.00 W/m2 CLR
09:24 11.7 °F /  -11.3 °C 9.4 °F /  -12.6 °C 1023.5 in /  34655.7 hPa Calm     86 % 0.0 in /  0 mm 98.00 W/m2 CLR
09:29 11.7 °F /  -11.3 °C 9.2 °F /  -12.7 °C 1023.6 in /  34659.1 hPa Calm     85 % 0.0 in /  0 mm 186.00 W/m2 CLR
09:34 11.7 °F /  -11.3 °C 9.2 °F /  -12.7 °C 1023.6 in /  34659.1 hPa Calm     85 % 0.0 in /  0 mm 204.00 W/m2 CLR
09:39 12.2 °F /  -11 °C 9.4 °F /  -12.6 °C 1023.6 in /  34659.1 hPa Calm     83 % 0.0 in /  0 mm 236.00 W/m2 CLR
09:44 12.8 °F /  -10.7 °C 9.8 °F /  -12.3 °C 1023.7 in /  34662.5 hPa Calm     82 % 0.0 in /  0 mm 253.00 W/m2 CLR
09:49 12.8 °F /  -10.7 °C 9.6 °F /  -12.4 °C 1023.8 in /  34665.9 hPa Calm     81 % 0.0 in /  0 mm 272.00 W/m2 CLR
09:54 13.3 °F /  -10.4 °C 9.8 °F /  -12.3 °C 1023.9 in /  34669.3 hPa Calm     79 % 0.0 in /  0 mm 288.00 W/m2 CLR
09:59 13.3 °F /  -10.4 °C 9.6 °F /  -12.4 °C 1023.9 in /  34669.3 hPa Calm     78 % 0.0 in /  0 mm 301.00 W/m2 CLR
10:04 13.9 °F /  -10.1 °C 9.6 °F /  -12.4 °C 1023.9 in /  34669.3 hPa Calm     75 % 0.0 in /  0 mm 308.00 W/m2 CLR
10:09 14.4 °F /  -9.8 °C 9.7 °F /  -12.4 °C 1023.9 in /  34669.3 hPa Calm     73 % 0.0 in /  0 mm 334.00 W/m2 CLR
10:14 15.0 °F /  -9.4 °C 10.2 °F /  -12.1 °C 1024.0 in /  34672.6 hPa Calm     73 % 0.0 in /  0 mm 322.00 W/m2 CLR
10:19 15.6 °F /  -9.1 °C 10.3 °F /  -12.1 °C 1023.9 in /  34669.3 hPa Calm     71 % 0.0 in /  0 mm 353.00 W/m2 CLR
10:24 16.7 °F /  -8.5 °C 11.4 °F /  -11.4 °C 1023.9 in /  34669.3 hPa Calm     71 % 0.0 in /  0 mm 380.00 W/m2 CLR
10:29 17.8 °F /  -7.9 °C 12.0 °F /  -11.1 °C 1023.9 in /  34669.3 hPa Calm     69 % 0.0 in /  0 mm 332.00 W/m2 CLR
10:34 18.3 °F /  -7.6 °C 12.6 °F /  -10.8 °C 1023.8 in /  34665.9 hPa Calm     69 % 0.0 in /  0 mm 387.00 W/m2 CLR
10:39 18.9 °F /  -7.3 °C 12.8 °F /  -10.7 °C 1023.8 in /  34665.9 hPa Calm     68 % 0.0 in /  0 mm 413.00 W/m2 CLR
10:44 18.9 °F /  -7.3 °C 12.4 °F /  -10.9 °C 1023.8 in /  34665.9 hPa Calm     66 % 0.0 in /  0 mm 359.00 W/m2 CLR
10:49 19.4 °F /  -7 °C 12.7 °F /  -10.7 °C 1023.8 in /  34665.9 hPa Calm     65 % 0.0 in /  0 mm 394.00 W/m2 CLR
10:54 19.4 °F /  -7 °C 12.4 °F /  -10.9 °C 1023.8 in /  34665.9 hPa Calm     64 % 0.0 in /  0 mm 308.00 W/m2 CLR
10:59 20.0 °F /  -6.7 °C 12.7 °F /  -10.7 °C 1023.9 in /  34669.3 hPa Calm     63 % 0.0 in /  0 mm 341.00 W/m2 CLR
11:04 20.0 °F /  -6.7 °C 12.2 °F /  -11 °C 1023.9 in /  34669.3 hPa Calm     61 % 0.0 in /  0 mm 378.00 W/m2 CLR
11:09 20.0 °F /  -6.7 °C 12.0 °F /  -11.1 °C 1023.9 in /  34669.3 hPa Calm     60 % 0.0 in /  0 mm 427.00 W/m2 CLR
11:14 20.6 °F /  -6.3 °C 12.3 °F /  -10.9 °C 1023.9 in /  34669.3 hPa Calm     59 % 0.0 in /  0 mm 399.00 W/m2 CLR
11:19 20.6 °F /  -6.3 °C 12.3 °F /  -10.9 °C 1023.9 in /  34669.3 hPa Calm     59 % 0.0 in /  0 mm 352.00 W/m2 CLR
11:24 20.6 °F /  -6.3 °C 12.0 °F /  -11.1 °C 1023.9 in /  34669.3 hPa Calm     58 % 0.0 in /  0 mm 506.00 W/m2 CLR
11:29 21.7 °F /  -5.7 °C 12.5 °F /  -10.8 °C 1023.9 in /  34669.3 hPa Calm     56 % 0.0 in /  0 mm 512.00 W/m2 CLR
11:34 21.7 °F /  -5.7 °C 12.2 °F /  -11 °C 1023.9 in /  34669.3 hPa Calm     55 % 0.0 in /  0 mm 527.00 W/m2 CLR
11:39 22.2 °F /  -5.4 °C 12.4 °F /  -10.9 °C 1023.9 in /  34669.3 hPa Calm     54 % 0.0 in /  0 mm 534.00 W/m2 CLR
11:44 22.2 °F /  -5.4 °C 12.2 °F /  -11 °C 1023.9 in /  34669.3 hPa Calm     53 % 0.0 in /  0 mm 543.00 W/m2 CLR
11:49 22.8 °F /  -5.1 °C 12.7 °F /  -10.7 °C 1023.9 in /  34669.3 hPa Calm     53 % 0.0 in /  0 mm 548.00 W/m2 CLR
11:54 22.8 °F /  -5.1 °C 12.4 °F /  -10.9 °C 1023.9 in /  34669.3 hPa Calm     52 % 0.0 in /  0 mm 559.00 W/m2 CLR
11:59 23.3 °F /  -4.8 °C 12.9 °F /  -10.6 °C 1023.9 in /  34669.3 hPa Calm     52 % 0.0 in /  0 mm 563.00 W/m2 CLR
12:04 23.3 °F /  -4.8 °C 12.3 °F /  -10.9 °C 1023.8 in /  34665.9 hPa Calm     50 % 0.0 in /  0 mm 573.00 W/m2 CLR
12:09 23.9 °F /  -4.5 °C 12.8 °F /  -10.7 °C 1023.8 in /  34665.9 hPa Calm     50 % 0.0 in /  0 mm 578.00 W/m2 CLR
12:14 24.4 °F /  -4.2 °C 13.1 °F /  -10.5 °C 1023.8 in /  34665.9 hPa NE 4.8 mph /  7.7 km/h 0.5 mph /  0.8 km/h 49 % 0.0 in /  0 mm 585.00 W/m2 CLR
12:19 25.0 °F /  -3.9 °C 13.8 °F /  -10.1 °C 1023.8 in /  34665.9 hPa Calm     50 % 0.0 in /  0 mm 592.00 W/m2 CLR
12:24 25.6 °F /  -3.6 °C 14.4 °F /  -9.8 °C 1023.7 in /  34662.5 hPa Calm     50 % 0.0 in /  0 mm 599.00 W/m2 CLR
12:29 25.6 °F /  -3.6 °C 14.4 °F /  -9.8 °C 1023.6 in /  34659.1 hPa ENE 9.3 mph /  15 km/h 3.4 mph /  5.5 km/h 50 % 0.0 in /  0 mm 606.00 W/m2 CLR
12:34 25.6 °F /  -3.6 °C 14.1 °F /  -9.9 °C 1023.6 in /  34659.1 hPa Calm     49 % 0.0 in /  0 mm 613.00 W/m2 CLR
12:39 25.0 °F /  -3.9 °C 13.8 °F /  -10.1 °C 1023.5 in /  34655.7 hPa East 14.8 mph /  23.8 km/h 9.0 mph /  14.5 km/h 50 % 0.0 in /  0 mm 621.00 W/m2 CLR
12:44 25.0 °F /  -3.9 °C 13.6 °F /  -10.2 °C 1023.5 in /  34655.7 hPa SE 5.6 mph /  9 km/h 3.2 mph /  5.1 km/h 49 % 0.0 in /  0 mm 626.00 W/m2 CLR
12:49 25.6 °F /  -3.6 °C 14.1 °F /  -9.9 °C 1023.4 in /  34652.3 hPa East 14.8 mph /  23.8 km/h 8.0 mph /  12.9 km/h 49 % 0.0 in /  0 mm 629.00 W/m2 CLR
12:54 25.0 °F /  -3.9 °C 13.8 °F /  -10.1 °C 1023.4 in /  34652.3 hPa Calm   1.6 mph /  2.6 km/h 50 % 0.0 in /  0 mm 635.00 W/m2 CLR
12:59 25.6 °F /  -3.6 °C 14.1 °F /  -9.9 °C 1023.3 in /  34648.9 hPa SE 11.1 mph /  17.9 km/h 9.0 mph /  14.5 km/h 49 % 0.0 in /  0 mm 642.00 W/m2 CLR
13:04 25.6 °F /  -3.6 °C 14.1 °F /  -9.9 °C 1023.3 in /  34648.9 hPa NE 9.3 mph /  15 km/h 2.4 mph /  3.9 km/h 49 % 0.0 in /  0 mm 638.00 W/m2 CLR
13:09 25.6 °F /  -3.6 °C 13.7 °F /  -10.2 °C 1023.2 in /  34645.6 hPa NE 14.8 mph /  23.8 km/h 10.3 mph /  16.6 km/h 48 % 0.0 in /  0 mm 647.00 W/m2 CLR
13:14 26.1 °F /  -3.3 °C 14.2 °F /  -9.9 °C 1023.2 in /  34645.6 hPa East 16.7 mph /  26.9 km/h 12.9 mph /  20.8 km/h 48 % 0.0 in /  0 mm 652.00 W/m2 CLR
13:19 26.1 °F /  -3.3 °C 14.2 °F /  -9.9 °C 1023.2 in /  34645.6 hPa East 7.4 mph /  11.9 km/h   48 % 0.0 in /  0 mm 650.00 W/m2 CLR
13:24 26.1 °F /  -3.3 °C 13.9 °F /  -10.1 °C 1023.2 in /  34645.6 hPa SSE 14.8 mph /  23.8 km/h 7.1 mph /  11.4 km/h 47 % 0.0 in /  0 mm 626.00 W/m2 CLR
13:29 26.1 °F /  -3.3 °C 13.9 °F /  -10.1 °C 1023.2 in /  34645.6 hPa East 7.4 mph /  11.9 km/h 3.1 mph /  5 km/h 47 % 0.0 in /  0 mm 663.00 W/m2 CLR
13:34 26.1 °F /  -3.3 °C 13.9 °F /  -10.1 °C 1023.2 in /  34645.6 hPa Calm     47 % 0.0 in /  0 mm 659.00 W/m2 CLR
13:39 26.7 °F /  -2.9 °C 14.1 °F /  -9.9 °C 1023.1 in /  34642.2 hPa East 11.1 mph /  17.9 km/h   46 % 0.0 in /  0 mm 628.00 W/m2 CLR
13:44 26.1 °F /  -3.3 °C 13.9 °F /  -10.1 °C 1023.0 in /  34638.8 hPa SE 14.8 mph /  23.8 km/h 8.4 mph /  13.5 km/h 47 % 0.0 in /  0 mm 645.00 W/m2 CLR
13:49 26.1 °F /  -3.3 °C 14.2 °F /  -9.9 °C 1023.0 in /  34638.8 hPa SSE 1.9 mph /  3.1 km/h   48 % 0.0 in /  0 mm 587.00 W/m2 CLR
13:54 26.1 °F /  -3.3 °C 14.6 °F /  -9.7 °C 1022.9 in /  34635.4 hPa ESE 14.8 mph /  23.8 km/h 10.3 mph /  16.6 km/h 49 % 0.0 in /  0 mm 705.00 W/m2 CLR
13:59 26.7 °F /  -2.9 °C 15.1 °F /  -9.4 °C 1022.8 in /  34632 hPa Calm     49 % 0.0 in /  0 mm 134.00 W/m2 CLR
14:04 26.7 °F /  -2.9 °C 15.1 °F /  -9.4 °C 1022.8 in /  34632 hPa Calm     49 % 0.0 in /  0 mm 705.00 W/m2 CLR
14:09 26.7 °F /  -2.9 °C 15.4 °F /  -9.2 °C 1022.7 in /  34628.6 hPa ESE 14.8 mph /  23.8 km/h 11.3 mph /  18.2 km/h 50 % 0.0 in /  0 mm 708.00 W/m2 CLR
14:14 26.7 °F /  -2.9 °C 15.1 °F /  -9.4 °C 1022.7 in /  34628.6 hPa ESE 11.3 mph /  18.2 km/h 6.8 mph /  10.9 km/h 49 % 0.0 in /  0 mm 643.00 W/m2 CLR
14:19 26.7 °F /  -2.9 °C 14.7 °F /  -9.6 °C 1022.6 in /  34625.2 hPa East 7.4 mph /  11.9 km/h 5.3 mph /  8.5 km/h 48 % 0.0 in /  0 mm 638.00 W/m2 CLR
14:24 27.2 °F /  -2.7 °C 14.9 °F /  -9.5 °C 1022.6 in /  34625.2 hPa SE 16.7 mph /  26.9 km/h 11.4 mph /  18.3 km/h 47 % 0.0 in /  0 mm 647.00 W/m2 CLR
14:29 27.2 °F /  -2.7 °C 14.9 °F /  -9.5 °C 1022.5 in /  34621.9 hPa East 3.7 mph /  6 km/h   47 % 0.0 in /  0 mm 659.00 W/m2 CLR
14:34 26.7 °F /  -2.9 °C 14.4 °F /  -9.8 °C 1022.4 in /  34618.5 hPa East 12.9 mph /  20.8 km/h 3.7 mph /  6 km/h 47 % 0.0 in /  0 mm 657.00 W/m2 CLR
14:39 27.2 °F /  -2.7 °C 14.6 °F /  -9.7 °C 1022.3 in /  34615.1 hPa East 16.7 mph /  26.9 km/h 3.5 mph /  5.6 km/h 46 % 0.0 in /  0 mm 645.00 W/m2 CLR
14:44 27.2 °F /  -2.7 °C 14.6 °F /  -9.7 °C 1022.2 in /  34611.7 hPa SE 14.8 mph /  23.8 km/h 11.1 mph /  17.9 km/h 46 % 0.0 in /  0 mm 626.00 W/m2 CLR
14:49 27.2 °F /  -2.7 °C 14.6 °F /  -9.7 °C 1022.2 in /  34611.7 hPa SE 22.2 mph /  35.7 km/h 16.3 mph /  26.2 km/h 46 % 0.0 in /  0 mm 626.00 W/m2 CLR
14:54 27.2 °F /  -2.7 °C 14.6 °F /  -9.7 °C 1022.1 in /  34608.3 hPa SSE 18.5 mph /  29.8 km/h 15.4 mph /  24.8 km/h 46 % 0.0 in /  0 mm 617.00 W/m2 CLR
14:59 27.2 °F /  -2.7 °C 14.6 °F /  -9.7 °C 1022.1 in /  34608.3 hPa SE 16.7 mph /  26.9 km/h 4.8 mph /  7.7 km/h 46 % 0.0 in /  0 mm 592.00 W/m2 CLR
15:04 27.2 °F /  -2.7 °C 14.6 °F /  -9.7 °C 1022.0 in /  34604.9 hPa East 18.5 mph /  29.8 km/h 4.2 mph /  6.8 km/h 46 % 0.0 in /  0 mm 610.00 W/m2 CLR
15:09 27.2 °F /  -2.7 °C 14.6 °F /  -9.7 °C 1022.0 in /  34604.9 hPa SE 13.0 mph /  20.9 km/h 1.1 mph /  1.8 km/h 46 % 0.0 in /  0 mm 608.00 W/m2 CLR
15:14 27.8 °F /  -2.3 °C 14.8 °F /  -9.6 °C 1021.9 in /  34601.5 hPa SSE 11.1 mph /  17.9 km/h 9.8 mph /  15.8 km/h 45 % 0.0 in /  0 mm 596.00 W/m2 CLR
15:19 27.8 °F /  -2.3 °C 14.8 °F /  -9.6 °C 1021.9 in /  34601.5 hPa SE 14.8 mph /  23.8 km/h 9.3 mph /  15 km/h 45 % 0.0 in /  0 mm 589.00 W/m2 CLR
15:24 27.2 °F /  -2.7 °C 14.3 °F /  -9.8 °C 1021.8 in /  34598.1 hPa SE 14.8 mph /  23.8 km/h 10.9 mph /  17.5 km/h 45 % 0.0 in /  0 mm 582.00 W/m2 CLR
15:29 27.8 °F /  -2.3 °C 15.1 °F /  -9.4 °C 1021.8 in /  34598.1 hPa ENE 5.6 mph /  9 km/h 1.0 mph /  1.6 km/h 46 % 0.0 in /  0 mm 575.00 W/m2 CLR
15:34 27.2 °F /  -2.7 °C 14.3 °F /  -9.8 °C 1021.9 in /  34601.5 hPa ESE 20.4 mph /  32.8 km/h 14.5 mph /  23.3 km/h 45 % 0.0 in /  0 mm 564.00 W/m2 CLR
15:39 27.2 °F /  -2.7 °C 14.6 °F /  -9.7 °C 1021.8 in /  34598.1 hPa East 13.0 mph /  20.9 km/h 0.3 mph /  0.5 km/h 46 % 0.0 in /  0 mm 548.00 W/m2 CLR
15:44 27.8 °F /  -2.3 °C 14.8 °F /  -9.6 °C 1021.8 in /  34598.1 hPa SSE 9.7 mph /  15.6 km/h 7.9 mph /  12.7 km/h 45 % 0.0 in /  0 mm 545.00 W/m2 CLR
15:49 27.8 °F /  -2.3 °C 15.1 °F /  -9.4 °C 1021.8 in /  34598.1 hPa SSE 16.1 mph /  25.9 km/h 7.6 mph /  12.2 km/h 46 % 0.0 in /  0 mm 534.00 W/m2 CLR
15:54 27.8 °F /  -2.3 °C 15.1 °F /  -9.4 °C 1021.8 in /  34598.1 hPa SSE 7.4 mph /  11.9 km/h 3.7 mph /  6 km/h 46 % 0.0 in /  0 mm 526.00 W/m2 CLR
15:59 27.8 °F /  -2.3 °C 15.4 °F /  -9.2 °C 1021.7 in /  34594.8 hPa South 9.3 mph /  15 km/h 4.7 mph /  7.6 km/h 47 % 0.0 in /  0 mm 510.00 W/m2 CLR
16:04 28.3 °F /  -2.1 °C 15.9 °F /  -8.9 °C 1021.7 in /  34594.8 hPa SSE 14.8 mph /  23.8 km/h 13.7 mph /  22 km/h 47 % 0.0 in /  0 mm 508.00 W/m2 CLR
16:09 27.8 °F /  -2.3 °C 15.4 °F /  -9.2 °C 1021.7 in /  34594.8 hPa SE 5.6 mph /  9 km/h   47 % 0.0 in /  0 mm 74.00 W/m2 CLR
16:14 27.2 °F /  -2.7 °C 14.9 °F /  -9.5 °C 1021.6 in /  34591.4 hPa Calm     47 % 0.0 in /  0 mm 499.00 W/m2 CLR
16:19 27.2 °F /  -2.7 °C 14.9 °F /  -9.5 °C 1021.7 in /  34594.8 hPa East 9.3 mph /  15 km/h   47 % 0.0 in /  0 mm 250.00 W/m2 CLR
16:24 26.7 °F /  -2.9 °C 14.4 °F /  -9.8 °C 1021.7 in /  34594.8 hPa Calm     47 % 0.0 in /  0 mm 471.00 W/m2 CLR
16:29 26.7 °F /  -2.9 °C 14.4 °F /  -9.8 °C 1021.7 in /  34594.8 hPa East 5.6 mph /  9 km/h   47 % 0.0 in /  0 mm 380.00 W/m2 CLR
16:34 26.7 °F /  -2.9 °C 14.1 °F /  -9.9 °C 1021.7 in /  34594.8 hPa East 1.9 mph /  3.1 km/h   46 % 0.0 in /  0 mm 441.00 W/m2 CLR
16:39 27.2 °F /  -2.7 °C 14.6 °F /  -9.7 °C 1021.7 in /  34594.8 hPa SSE 5.6 mph /  9 km/h 4.2 mph /  6.8 km/h 46 % 0.0 in /  0 mm 425.00 W/m2 CLR
16:44 27.2 °F /  -2.7 °C 14.9 °F /  -9.5 °C 1021.7 in /  34594.8 hPa East 14.8 mph /  23.8 km/h 9.5 mph /  15.3 km/h 47 % 0.0 in /  0 mm 374.00 W/m2 CLR
16:49 27.2 °F /  -2.7 °C 14.9 °F /  -9.5 °C 1021.6 in /  34591.4 hPa SSE 19.3 mph /  31.1 km/h 11.6 mph /  18.7 km/h 47 % 0.0 in /  0 mm 353.00 W/m2 CLR
16:54 27.2 °F /  -2.7 °C 14.9 °F /  -9.5 °C 1021.5 in /  34588 hPa SSE 13.0 mph /  20.9 km/h 9.0 mph /  14.5 km/h 47 % 0.0 in /  0 mm 355.00 W/m2 CLR
16:59 27.2 °F /  -2.7 °C 15.3 °F /  -9.3 °C 1021.5 in /  34588 hPa SSE 18.5 mph /  29.8 km/h 10.5 mph /  16.9 km/h 48 % 0.0 in /  0 mm 332.00 W/m2 CLR
17:04 27.2 °F /  -2.7 °C 15.3 °F /  -9.3 °C 1021.6 in /  34591.4 hPa ESE 8.0 mph /  12.9 km/h 2.1 mph /  3.4 km/h 48 % 0.0 in /  0 mm 339.00 W/m2 CLR
17:09 26.7 °F /  -2.9 °C 14.7 °F /  -9.6 °C 1021.5 in /  34588 hPa ESE 14.8 mph /  23.8 km/h 7.1 mph /  11.4 km/h 48 % 0.0 in /  0 mm 308.00 W/m2 CLR
17:14 26.7 °F /  -2.9 °C 15.1 °F /  -9.4 °C 1021.6 in /  34591.4 hPa South 14.8 mph /  23.8 km/h 11.9 mph /  19.2 km/h 49 % 0.0 in /  0 mm 316.00 W/m2 CLR
17:19 26.7 °F /  -2.9 °C 14.7 °F /  -9.6 °C 1021.6 in /  34591.4 hPa SE 16.7 mph /  26.9 km/h 15.6 mph /  25.1 km/h 48 % 0.0 in /  0 mm 276.00 W/m2 CLR
17:24 26.1 °F /  -3.3 °C 14.6 °F /  -9.7 °C 1021.6 in /  34591.4 hPa SSE 16.7 mph /  26.9 km/h 13.4 mph /  21.6 km/h 49 % 0.0 in /  0 mm 292.00 W/m2 CLR
17:29 26.1 °F /  -3.3 °C 14.9 °F /  -9.5 °C 1021.6 in /  34591.4 hPa SSE 20.9 mph /  33.6 km/h 14.6 mph /  23.5 km/h 50 % 0.0 in /  0 mm 294.00 W/m2 CLR
17:34 26.1 °F /  -3.3 °C 15.2 °F /  -9.3 °C 1021.5 in /  34588 hPa SE 18.5 mph /  29.8 km/h 13.0 mph /  20.9 km/h 51 % 0.0 in /  0 mm 265.00 W/m2 CLR
17:39 26.1 °F /  -3.3 °C 15.5 °F /  -9.2 °C 1021.5 in /  34588 hPa SSE 18.5 mph /  29.8 km/h 12.9 mph /  20.8 km/h 52 % 0.0 in /  0 mm 257.00 W/m2 CLR
17:44 26.1 °F /  -3.3 °C 15.5 °F /  -9.2 °C 1021.5 in /  34588 hPa SE 18.5 mph /  29.8 km/h 7.9 mph /  12.7 km/h 52 % 0.0 in /  0 mm 232.00 W/m2 CLR
17:49 26.1 °F /  -3.3 °C 15.8 °F /  -9 °C 1021.5 in /  34588 hPa SE 18.5 mph /  29.8 km/h 8.4 mph /  13.5 km/h 53 % 0.0 in /  0 mm 234.00 W/m2 CLR
17:54 25.6 °F /  -3.6 °C 15.6 °F /  -9.1 °C 1021.5 in /  34588 hPa SSE 16.7 mph /  26.9 km/h 13.5 mph /  21.7 km/h 54 % 0.0 in /  0 mm 207.00 W/m2 CLR
17:59 25.6 °F /  -3.6 °C 15.6 °F /  -9.1 °C 1021.6 in /  34591.4 hPa SE 9.3 mph /  15 km/h 8.4 mph /  13.5 km/h 54 % 0.0 in /  0 mm 174.00 W/m2 CLR
18:04 25.6 °F /  -3.6 °C 15.8 °F /  -9 °C 1021.6 in /  34591.4 hPa SE 20.4 mph /  32.8 km/h 12.2 mph /  19.6 km/h 55 % 0.0 in /  0 mm 167.00 W/m2 CLR
18:09 25.6 °F /  -3.6 °C 15.8 °F /  -9 °C 1021.5 in /  34588 hPa SE 16.7 mph /  26.9 km/h 13.7 mph /  22 km/h 55 % 0.0 in /  0 mm 153.00 W/m2 CLR
18:14 25.6 °F /  -3.6 °C 16.1 °F /  -8.8 °C 1021.5 in /  34588 hPa SSE 18.5 mph /  29.8 km/h 13.7 mph /  22 km/h 56 % 0.0 in /  0 mm 144.00 W/m2 CLR
18:19 25.0 °F /  -3.9 °C 15.9 °F /  -8.9 °C 1021.6 in /  34591.4 hPa ESE 20.4 mph /  32.8 km/h 11.4 mph /  18.3 km/h 57 % 0.0 in /  0 mm 118.00 W/m2 CLR
18:24 25.0 °F /  -3.9 °C 16.2 °F /  -8.8 °C 1021.6 in /  34591.4 hPa SSE 18.5 mph /  29.8 km/h 8.0 mph /  12.9 km/h 58 % 0.0 in /  0 mm 79.00 W/m2 CLR
18:29 25.0 °F /  -3.9 °C 16.4 °F /  -8.7 °C 1021.6 in /  34591.4 hPa South 11.1 mph /  17.9 km/h 9.0 mph /  14.5 km/h 59 % 0.0 in /  0 mm 60.00 W/m2 FEW
18:34 24.4 °F /  -4.2 °C 16.2 °F /  -8.8 °C 1021.6 in /  34591.4 hPa SSE 14.8 mph /  23.8 km/h 9.0 mph /  14.5 km/h 60 % 0.0 in /  0 mm 51.00 W/m2 SCT
18:39 24.4 °F /  -4.2 °C 16.2 °F /  -8.8 °C 1021.7 in /  34594.8 hPa SSE 18.5 mph /  29.8 km/h 15.3 mph /  24.6 km/h 60 % 0.0 in /  0 mm 54.00 W/m2 SCT
18:44 23.9 °F /  -4.5 °C 15.9 °F /  -8.9 °C 1021.7 in /  34594.8 hPa SE 11.1 mph /  17.9 km/h 8.5 mph /  13.7 km/h 61 % 0.0 in /  0 mm 40.00 W/m2 BKN
18:49 23.9 °F /  -4.5 °C 15.9 °F /  -8.9 °C 1021.7 in /  34594.8 hPa South 14.8 mph /  23.8 km/h 9.7 mph /  15.6 km/h 61 % 0.0 in /  0 mm 33.00 W/m2 BKN
18:54 23.9 °F /  -4.5 °C 15.9 °F /  -8.9 °C 1021.8 in /  34598.1 hPa SSE 18.5 mph /  29.8 km/h 11.9 mph /  19.2 km/h 61 % 0.0 in /  0 mm 26.00 W/m2 BKN
18:59 23.3 °F /  -4.8 °C 15.7 °F /  -9.1 °C 1021.9 in /  34601.5 hPa SSE 9.3 mph /  15 km/h 7.4 mph /  11.9 km/h 62 % 0.0 in /  0 mm 21.00 W/m2 BKN
19:04 23.3 °F /  -4.8 °C 15.9 °F /  -8.9 °C 1021.9 in /  34601.5 hPa South 12.9 mph /  20.8 km/h 9.3 mph /  15 km/h 63 % 0.0 in /  0 mm 16.00 W/m2 BKN
19:09 23.3 °F /  -4.8 °C 16.1 °F /  -8.8 °C 1021.9 in /  34601.5 hPa SSE 7.4 mph /  11.9 km/h 6.8 mph /  10.9 km/h 64 % 0.0 in /  0 mm 12.00 W/m2 BKN
19:14 22.8 °F /  -5.1 °C 15.8 °F /  -9 °C 1021.8 in /  34598.1 hPa SSE 14.8 mph /  23.8 km/h 8.5 mph /  13.7 km/h 65 % 0.0 in /  0 mm 9.00 W/m2 BKN
19:19 22.2 °F /  -5.4 °C 15.6 °F /  -9.1 °C 1022.0 in /  34604.9 hPa SSE 16.7 mph /  26.9 km/h 7.2 mph /  11.6 km/h 66 % 0.0 in /  0 mm 5.00 W/m2 OVC
19:24 22.2 °F /  -5.4 °C 15.6 °F /  -9.1 °C 1022.0 in /  34604.9 hPa Calm     66 % 0.0 in /  0 mm 0.00 W/m2 OVC
19:29 22.2 °F /  -5.4 °C 15.8 °F /  -9 °C 1022.1 in /  34608.3 hPa SSE 7.4 mph /  11.9 km/h 4.2 mph /  6.8 km/h 67 % 0.0 in /  0 mm 0.00 W/m2 OVC
19:34 21.7 °F /  -5.7 °C 15.3 °F /  -9.3 °C 1022.1 in /  34608.3 hPa SSE 7.4 mph /  11.9 km/h 3.7 mph /  6 km/h 67 % 0.0 in /  0 mm 0.00 W/m2 CLR
19:39 21.7 °F /  -5.7 °C 15.5 °F /  -9.2 °C 1022.1 in /  34608.3 hPa SSE 5.6 mph /  9 km/h 0.2 mph /  0.3 km/h 68 % 0.0 in /  0 mm 0.00 W/m2 CLR
19:44 21.1 °F /  -6.1 °C 15.2 °F /  -9.3 °C 1022.1 in /  34608.3 hPa SSE 9.3 mph /  15 km/h 6.4 mph /  10.3 km/h 69 % 0.0 in /  0 mm 0.00 W/m2 CLR
19:49 21.1 °F /  -6.1 °C 15.2 °F /  -9.3 °C 1022.2 in /  34611.7 hPa South 5.6 mph /  9 km/h   69 % 0.0 in /  0 mm 0.00 W/m2 CLR
19:54 20.6 °F /  -6.3 °C 14.9 °F /  -9.5 °C 1022.3 in /  34615.1 hPa South 11.1 mph /  17.9 km/h 5.5 mph /  8.9 km/h 70 % 0.0 in /  0 mm 0.00 W/m2 CLR
19:59 20.6 °F /  -6.3 °C 15.1 °F /  -9.4 °C 1022.3 in /  34615.1 hPa South 7.4 mph /  11.9 km/h 4.7 mph /  7.6 km/h 71 % 0.0 in /  0 mm 0.00 W/m2 CLR
20:04 20.0 °F /  -6.7 °C 14.6 °F /  -9.7 °C 1022.4 in /  34618.5 hPa SSE 7.4 mph /  11.9 km/h 2.4 mph /  3.9 km/h 71 % 0.0 in /  0 mm 0.00 W/m2 CLR
20:09 20.0 °F /  -6.7 °C 14.6 °F /  -9.7 °C 1022.4 in /  34618.5 hPa South 11.1 mph /  17.9 km/h 5.1 mph /  8.2 km/h 71 % 0.0 in /  0 mm 0.00 W/m2 CLR
20:14 20.0 °F /  -6.7 °C 14.6 °F /  -9.7 °C 1022.4 in /  34618.5 hPa Calm     71 % 0.0 in /  0 mm 0.00 W/m2 CLR
20:19 19.4 °F /  -7 °C 14.3 °F /  -9.8 °C 1022.5 in /  34621.9 hPa Calm     72 % 0.0 in /  0 mm 0.00 W/m2 CLR
20:24 19.4 °F /  -7 °C 14.3 °F /  -9.8 °C 1022.5 in /  34621.9 hPa Calm     72 % 0.0 in /  0 mm 0.00 W/m2 CLR
20:29 18.9 °F /  -7.3 °C 13.9 °F /  -10.1 °C 1022.5 in /  34621.9 hPa South 5.6 mph /  9 km/h 1.4 mph /  2.3 km/h 73 % 0.0 in /  0 mm 0.00 W/m2 CLR
20:34 18.9 °F /  -7.3 °C 13.9 °F /  -10.1 °C 1022.6 in /  34625.2 hPa South 8.0 mph /  12.9 km/h 1.6 mph /  2.6 km/h 73 % 0.0 in /  0 mm 0.00 W/m2 CLR
20:39 18.9 °F /  -7.3 °C 14.2 °F /  -9.9 °C 1022.6 in /  34625.2 hPa South 14.8 mph /  23.8 km/h 8.5 mph /  13.7 km/h 74 % 0.0 in /  0 mm 0.00 W/m2 CLR
20:44 18.9 °F /  -7.3 °C 14.2 °F /  -9.9 °C 1022.6 in /  34625.2 hPa SSE 9.3 mph /  15 km/h 6.0 mph /  9.7 km/h 74 % 0.0 in /  0 mm 0.00 W/m2 CLR
20:49 18.3 °F /  -7.6 °C 13.8 °F /  -10.1 °C 1022.6 in /  34625.2 hPa South 5.6 mph /  9 km/h 2.1 mph /  3.4 km/h 75 % 0.0 in /  0 mm 0.00 W/m2 CLR
20:54 18.3 °F /  -7.6 °C 13.8 °F /  -10.1 °C 1022.6 in /  34625.2 hPa SSW 7.4 mph /  11.9 km/h 6.6 mph /  10.6 km/h 75 % 0.0 in /  0 mm 0.00 W/m2 CLR
20:59 18.3 °F /  -7.6 °C 14.0 °F /  -10 °C 1022.6 in /  34625.2 hPa South 14.8 mph /  23.8 km/h 7.6 mph /  12.2 km/h 76 % 0.0 in /  0 mm 0.00 W/m2 CLR
21:04 18.3 °F /  -7.6 °C 14.0 °F /  -10 °C 1022.5 in /  34621.9 hPa South 11.1 mph /  17.9 km/h 4.5 mph /  7.2 km/h 76 % 0.0 in /  0 mm 0.00 W/m2 CLR
21:09 18.3 °F /  -7.6 °C 14.0 °F /  -10 °C 1022.5 in /  34621.9 hPa SSW 13.0 mph /  20.9 km/h 9.3 mph /  15 km/h 76 % 0.0 in /  0 mm 0.00 W/m2 CLR
21:14 18.3 °F /  -7.6 °C 14.2 °F /  -9.9 °C 1022.6 in /  34625.2 hPa SSE 13.0 mph /  20.9 km/h 7.9 mph /  12.7 km/h 77 % 0.0 in /  0 mm 0.00 W/m2 CLR
21:19 17.8 °F /  -7.9 °C 13.7 °F /  -10.2 °C 1022.5 in /  34621.9 hPa South 11.1 mph /  17.9 km/h 5.3 mph /  8.5 km/h 77 % 0.0 in /  0 mm 0.00 W/m2 CLR
21:24 17.8 °F /  -7.9 °C 13.7 °F /  -10.2 °C 1022.5 in /  34621.9 hPa South 14.8 mph /  23.8 km/h 4.7 mph /  7.6 km/h 77 % 0.0 in /  0 mm 0.00 W/m2 CLR
21:29 17.8 °F /  -7.9 °C 13.7 °F /  -10.2 °C 1022.6 in /  34625.2 hPa SSE 1.9 mph /  3.1 km/h   77 % 0.0 in /  0 mm 0.00 W/m2 CLR
21:34 17.8 °F /  -7.9 °C 13.7 °F /  -10.2 °C 1022.6 in /  34625.2 hPa Calm     77 % 0.0 in /  0 mm 0.00 W/m2 CLR
21:39 17.8 °F /  -7.9 °C 13.7 °F /  -10.2 °C 1022.6 in /  34625.2 hPa Calm     77 % 0.0 in /  0 mm 0.00 W/m2 CLR
21:44 17.8 °F /  -7.9 °C 13.9 °F /  -10.1 °C 1022.7 in /  34628.6 hPa Calm     78 % 0.0 in /  0 mm 0.00 W/m2 CLR
21:49 17.8 °F /  -7.9 °C 13.9 °F /  -10.1 °C 1022.7 in /  34628.6 hPa Calm     78 % 0.0 in /  0 mm 0.00 W/m2 CLR
21:54 17.8 °F /  -7.9 °C 13.9 °F /  -10.1 °C 1022.7 in /  34628.6 hPa Calm     78 % 0.0 in /  0 mm 0.00 W/m2 CLR
21:59 17.8 °F /  -7.9 °C 13.9 °F /  -10.1 °C 1022.7 in /  34628.6 hPa Calm     78 % 0.0 in /  0 mm 0.00 W/m2 CLR
22:04 17.2 °F /  -8.2 °C 13.3 °F /  -10.4 °C 1022.7 in /  34628.6 hPa Calm     78 % 0.0 in /  0 mm 0.00 W/m2 CLR
22:09 17.2 °F /  -8.2 °C 13.3 °F /  -10.4 °C 1022.7 in /  34628.6 hPa Calm     78 % 0.0 in /  0 mm 0.00 W/m2 CLR
22:14 17.2 °F /  -8.2 °C 13.3 °F /  -10.4 °C 1022.7 in /  34628.6 hPa Calm     78 % 0.0 in /  0 mm 0.00 W/m2 CLR
22:19 17.2 °F /  -8.2 °C 13.6 °F /  -10.2 °C 1022.8 in /  34632 hPa Calm     79 % 0.0 in /  0 mm 0.00 W/m2 CLR
22:24 16.7 °F /  -8.5 °C 13.0 °F /  -10.6 °C 1022.9 in /  34635.4 hPa Calm     79 % 0.0 in /  0 mm 0.00 W/m2 CLR
22:29 16.7 °F /  -8.5 °C 13.2 °F /  -10.4 °C 1022.9 in /  34635.4 hPa Calm     80 % 0.0 in /  0 mm 0.00 W/m2 CLR
22:34 16.7 °F /  -8.5 °C 13.2 °F /  -10.4 °C 1022.9 in /  34635.4 hPa Calm     80 % 0.0 in /  0 mm 0.00 W/m2 CLR
22:39 16.7 °F /  -8.5 °C 13.2 °F /  -10.4 °C 1022.7 in /  34628.6 hPa Calm     80 % 0.0 in /  0 mm 0.00 W/m2 CLR
22:44 16.1 °F /  -8.8 °C 12.4 °F /  -10.9 °C 1022.9 in /  34635.4 hPa Calm     79 % 0.0 in /  0 mm 0.00 W/m2 CLR
22:49 16.1 °F /  -8.8 °C 12.4 °F /  -10.9 °C 1023.0 in /  34638.8 hPa Calm     79 % 0.0 in /  0 mm 0.00 W/m2 CLR
22:54 16.1 °F /  -8.8 °C 12.7 °F /  -10.7 °C 1022.9 in /  34635.4 hPa Calm     80 % 0.0 in /  0 mm 0.00 W/m2 CLR
22:59 16.1 °F /  -8.8 °C 12.7 °F /  -10.7 °C 1023.0 in /  34638.8 hPa Calm     80 % 0.0 in /  0 mm 0.00 W/m2 CLR
23:04 16.1 °F /  -8.8 °C 12.8 °F /  -10.7 °C 1023.0 in /  34638.8 hPa Calm     81 % 0.0 in /  0 mm 0.00 W/m2 CLR
23:09 16.1 °F /  -8.8 °C 12.8 °F /  -10.7 °C 1023.1 in /  34642.2 hPa Calm     81 % 0.0 in /  0 mm 0.00 W/m2 CLR
23:14 15.6 °F /  -9.1 °C 12.5 °F /  -10.8 °C 1023.1 in /  34642.2 hPa Calm     82 % 0.0 in /  0 mm 0.00 W/m2 CLR
23:19 15.6 °F /  -9.1 °C 12.5 °F /  -10.8 °C 1023.2 in /  34645.6 hPa Calm     82 % 0.0 in /  0 mm 0.00 W/m2 CLR
23:24 15.6 °F /  -9.1 °C 12.5 °F /  -10.8 °C 1023.1 in /  34642.2 hPa Calm     82 % 0.0 in /  0 mm 0.00 W/m2 CLR
23:29 15.6 °F /  -9.1 °C 12.7 °F /  -10.7 °C 1023.0 in /  34638.8 hPa Calm     83 % 0.0 in /  0 mm 0.00 W/m2 CLR
23:34 15.6 °F /  -9.1 °C 12.5 °F /  -10.8 °C 1022.9 in /  34635.4 hPa Calm     82 % 0.0 in /  0 mm 0.00 W/m2 CLR
23:39 15.6 °F /  -9.1 °C 12.7 °F /  -10.7 °C 1022.9 in /  34635.4 hPa Calm     83 % 0.0 in /  0 mm 0.00 W/m2 CLR
23:44 15.6 °F /  -9.1 °C 12.7 °F /  -10.7 °C 1023.0 in /  34638.8 hPa Calm     83 % 0.0 in /  0 mm 0.00 W/m2 CLR
23:49 15.6 °F /  -9.1 °C 12.7 °F /  -10.7 °C 1023.0 in /  34638.8 hPa Calm     83 % 0.0 in /  0 mm 0.00 W/m2 CLR
23:54 15.6 °F /  -9.1 °C 12.9 °F /  -10.6 °C 1023.0 in /  34638.8 hPa Calm     84 % 0.0 in /  0 mm 0.00 W/m2 CLR
23:59 15.0 °F /  -9.4 °C 12.3 °F /  -10.9 °C 1022.9 in /  34635.4 hPa Calm     84 % 0.0 in /  0 mm 0.00 W/m2 CLR
Lo Temps de Massalio
Compliments of Weather Underground - 1.25 mb